sensor_id;sensor_type;location;lat;lon;timestamp;P1;durP1;ratioP1;P2;durP2;ratioP2
20095;SDS011;10207;50.942;6.900;2023-09-08T00:00:46;9.38;;;4.57;;
20095;SDS011;10207;50.942;6.900;2023-09-08T00:03:12;6.63;;;4.35;;
20095;SDS011;10207;50.942;6.900;2023-09-08T00:05:38;6.22;;;4.20;;
20095;SDS011;10207;50.942;6.900;2023-09-08T00:08:04;6.70;;;4.35;;
20095;SDS011;10207;50.942;6.900;2023-09-08T00:10:30;7.82;;;4.22;;
20095;SDS011;10207;50.942;6.900;2023-09-08T00:12:56;7.07;;;3.60;;
20095;SDS011;10207;50.942;6.900;2023-09-08T00:15:22;7.88;;;4.32;;
20095;SDS011;10207;50.942;6.900;2023-09-08T00:17:47;7.65;;;4.25;;
20095;SDS011;10207;50.942;6.900;2023-09-08T00:20:13;5.85;;;3.47;;
20095;SDS011;10207;50.942;6.900;2023-09-08T00:22:40;10.43;;;4.40;;
20095;SDS011;10207;50.942;6.900;2023-09-08T00:25:06;7.00;;;4.20;;
20095;SDS011;10207;50.942;6.900;2023-09-08T00:27:32;6.20;;;4.55;;
20095;SDS011;10207;50.942;6.900;2023-09-08T00:29:58;5.70;;;4.32;;
20095;SDS011;10207;50.942;6.900;2023-09-08T00:32:29;7.30;;;4.38;;
20095;SDS011;10207;50.942;6.900;2023-09-08T00:34:55;6.50;;;3.75;;
20095;SDS011;10207;50.942;6.900;2023-09-08T00:37:21;5.78;;;4.53;;
20095;SDS011;10207;50.942;6.900;2023-09-08T00:39:47;7.40;;;3.90;;
20095;SDS011;10207;50.942;6.900;2023-09-08T00:42:13;5.45;;;3.90;;
20095;SDS011;10207;50.942;6.900;2023-09-08T00:44:39;5.32;;;4.13;;
20095;SDS011;10207;50.942;6.900;2023-09-08T00:47:05;6.75;;;3.75;;
20095;SDS011;10207;50.942;6.900;2023-09-08T00:57:18;6.57;;;4.85;;
20095;SDS011;10207;50.942;6.900;2023-09-08T00:59:44;12.80;;;5.68;;
20095;SDS011;10207;50.942;6.900;2023-09-08T01:02:10;7.97;;;4.57;;
20095;SDS011;10207;50.942;6.900;2023-09-08T01:04:36;5.82;;;3.88;;
20095;SDS011;10207;50.942;6.900;2023-09-08T01:07:06;5.43;;;4.07;;
20095;SDS011;10207;50.942;6.900;2023-09-08T01:09:32;7.78;;;4.50;;
20095;SDS011;10207;50.942;6.900;2023-09-08T01:11:58;9.07;;;4.80;;
20095;SDS011;10207;50.942;6.900;2023-09-08T01:14:29;5.85;;;4.43;;
20095;SDS011;10207;50.942;6.900;2023-09-08T01:16:55;8.07;;;4.65;;
20095;SDS011;10207;50.942;6.900;2023-09-08T01:19:20;5.32;;;4.10;;
20095;SDS011;10207;50.942;6.900;2023-09-08T01:24:38;6.03;;;4.90;;
20095;SDS011;10207;50.942;6.900;2023-09-08T01:27:12;10.07;;;4.95;;
20095;SDS011;10207;50.942;6.900;2023-09-08T01:29:38;10.10;;;4.97;;
20095;SDS011;10207;50.942;6.900;2023-09-08T01:32:04;7.18;;;4.32;;
20095;SDS011;10207;50.942;6.900;2023-09-08T01:34:30;8.48;;;4.80;;
20095;SDS011;10207;50.942;6.900;2023-09-08T01:36:57;7.45;;;4.32;;
20095;SDS011;10207;50.942;6.900;2023-09-08T01:39:27;6.75;;;4.88;;
20095;SDS011;10207;50.942;6.900;2023-09-08T01:41:52;9.20;;;5.43;;
20095;SDS011;10207;50.942;6.900;2023-09-08T01:44:19;7.40;;;4.68;;
20095;SDS011;10207;50.942;6.900;2023-09-08T01:46:44;8.40;;;5.03;;
20095;SDS011;10207;50.942;6.900;2023-09-08T01:49:10;8.38;;;5.10;;
20095;SDS011;10207;50.942;6.900;2023-09-08T01:51:36;8.50;;;5.13;;
20095;SDS011;10207;50.942;6.900;2023-09-08T01:54:02;6.30;;;4.90;;
20095;SDS011;10207;50.942;6.900;2023-09-08T01:56:28;9.60;;;4.57;;
20095;SDS011;10207;50.942;6.900;2023-09-08T01:58:55;7.63;;;4.85;;
20095;SDS011;10207;50.942;6.900;2023-09-08T02:01:22;9.20;;;5.10;;
20095;SDS011;10207;50.942;6.900;2023-09-08T02:03:47;15.57;;;5.03;;
20095;SDS011;10207;50.942;6.900;2023-09-08T02:06:14;6.30;;;4.80;;
20095;SDS011;10207;50.942;6.900;2023-09-08T02:08:40;8.55;;;4.90;;
20095;SDS011;10207;50.942;6.900;2023-09-08T02:11:06;6.82;;;5.18;;
20095;SDS011;10207;50.942;6.900;2023-09-08T02:13:32;7.25;;;4.82;;
20095;SDS011;10207;50.942;6.900;2023-09-08T02:15:58;6.72;;;5.10;;
20095;SDS011;10207;50.942;6.900;2023-09-08T02:18:25;7.28;;;4.60;;
20095;SDS011;10207;50.942;6.900;2023-09-08T02:20:51;8.70;;;5.30;;
20095;SDS011;10207;50.942;6.900;2023-09-08T02:23:17;9.80;;;5.03;;
20095;SDS011;10207;50.942;6.900;2023-09-08T02:25:43;9.05;;;4.88;;
20095;SDS011;10207;50.942;6.900;2023-09-08T02:28:09;10.00;;;5.00;;
20095;SDS011;10207;50.942;6.900;2023-09-08T02:30:35;6.78;;;4.60;;
20095;SDS011;10207;50.942;6.900;2023-09-08T02:33:01;7.25;;;5.10;;
20095;SDS011;10207;50.942;6.900;2023-09-08T02:35:28;6.43;;;4.47;;
20095;SDS011;10207;50.942;6.900;2023-09-08T02:37:57;8.20;;;4.10;;
20095;SDS011;10207;50.942;6.900;2023-09-08T02:40:23;5.82;;;3.92;;
20095;SDS011;10207;50.942;6.900;2023-09-08T02:42:49;7.53;;;4.50;;
20095;SDS011;10207;50.942;6.900;2023-09-08T02:45:15;7.55;;;4.32;;
20095;SDS011;10207;50.942;6.900;2023-09-08T02:47:41;6.57;;;4.15;;
20095;SDS011;10207;50.942;6.900;2023-09-08T02:50:08;7.93;;;4.78;;
20095;SDS011;10207;50.942;6.900;2023-09-08T02:52:34;6.85;;;4.10;;
20095;SDS011;10207;50.942;6.900;2023-09-08T02:55:00;5.35;;;4.22;;
20095;SDS011;10207;50.942;6.900;2023-09-08T02:57:26;8.25;;;4.45;;
20095;SDS011;10207;50.942;6.900;2023-09-08T02:59:52;5.63;;;4.43;;
20095;SDS011;10207;50.942;6.900;2023-09-08T03:02:22;6.72;;;4.65;;
20095;SDS011;10207;50.942;6.900;2023-09-08T03:04:48;7.60;;;4.68;;
20095;SDS011;10207;50.942;6.900;2023-09-08T03:07:15;5.95;;;4.20;;
20095;SDS011;10207;50.942;6.900;2023-09-08T03:09:41;6.78;;;4.03;;
20095;SDS011;10207;50.942;6.900;2023-09-08T03:12:07;8.05;;;4.60;;
20095;SDS011;10207;50.942;6.900;2023-09-08T03:14:34;7.30;;;4.75;;
20095;SDS011;10207;50.942;6.900;2023-09-08T03:17:00;7.30;;;4.47;;
20095;SDS011;10207;50.942;6.900;2023-09-08T03:19:26;7.30;;;4.40;;
20095;SDS011;10207;50.942;6.900;2023-09-08T03:21:52;6.80;;;4.97;;
20095;SDS011;10207;50.942;6.900;2023-09-08T03:24:18;6.88;;;4.40;;
20095;SDS011;10207;50.942;6.900;2023-09-08T03:26:44;6.47;;;4.40;;
20095;SDS011;10207;50.942;6.900;2023-09-08T03:29:10;6.18;;;4.22;;
20095;SDS011;10207;50.942;6.900;2023-09-08T03:31:36;6.68;;;4.22;;
20095;SDS011;10207;50.942;6.900;2023-09-08T03:34:02;6.95;;;4.38;;
20095;SDS011;10207;50.942;6.900;2023-09-08T03:36:28;6.80;;;4.20;;
20095;SDS011;10207;50.942;6.900;2023-09-08T03:38:54;9.02;;;4.53;;
20095;SDS011;10207;50.942;6.900;2023-09-08T03:41:20;11.65;;;4.43;;
20095;SDS011;10207;50.942;6.900;2023-09-08T03:43:46;8.20;;;4.38;;
20095;SDS011;10207;50.942;6.900;2023-09-08T03:46:15;7.53;;;4.43;;
20095;SDS011;10207;50.942;6.900;2023-09-08T03:48:40;8.55;;;4.47;;
20095;SDS011;10207;50.942;6.900;2023-09-08T03:51:06;7.30;;;4.25;;
20095;SDS011;10207;50.942;6.900;2023-09-08T03:53:32;6.15;;;4.05;;
20095;SDS011;10207;50.942;6.900;2023-09-08T03:55:58;6.53;;;4.68;;
20095;SDS011;10207;50.942;6.900;2023-09-08T03:58:24;6.90;;;4.78;;
20095;SDS011;10207;50.942;6.900;2023-09-08T04:00:50;8.10;;;4.75;;
20095;SDS011;10207;50.942;6.900;2023-09-08T04:03:16;6.45;;;4.47;;
20095;SDS011;10207;50.942;6.900;2023-09-08T04:05:42;5.85;;;4.38;;
20095;SDS011;10207;50.942;6.900;2023-09-08T04:08:08;7.78;;;4.85;;
20095;SDS011;10207;50.942;6.900;2023-09-08T04:10:34;6.72;;;4.05;;
20095;SDS011;10207;50.942;6.900;2023-09-08T04:13:00;8.25;;;4.30;;
20095;SDS011;10207;50.942;6.900;2023-09-08T04:15:26;6.97;;;4.00;;
20095;SDS011;10207;50.942;6.900;2023-09-08T04:17:52;5.38;;;4.13;;
20095;SDS011;10207;50.942;6.900;2023-09-08T04:20:18;6.63;;;4.45;;
20095;SDS011;10207;50.942;6.900;2023-09-08T04:22:44;6.43;;;4.18;;
20095;SDS011;10207;50.942;6.900;2023-09-08T04:25:11;11.23;;;4.88;;
20095;SDS011;10207;50.942;6.900;2023-09-08T04:27:37;7.45;;;4.40;;
20095;SDS011;10207;50.942;6.900;2023-09-08T04:30:04;7.00;;;4.32;;
20095;SDS011;10207;50.942;6.900;2023-09-08T04:32:30;10.13;;;4.53;;
20095;SDS011;10207;50.942;6.900;2023-09-08T04:34:56;6.40;;;4.28;;
20095;SDS011;10207;50.942;6.900;2023-09-08T04:37:22;7.65;;;4.40;;
20095;SDS011;10207;50.942;6.900;2023-09-08T04:39:48;11.00;;;5.50;;
20095;SDS011;10207;50.942;6.900;2023-09-08T04:42:14;7.93;;;4.57;;
20095;SDS011;10207;50.942;6.900;2023-09-08T04:44:41;7.80;;;4.30;;
20095;SDS011;10207;50.942;6.900;2023-09-08T04:47:08;8.73;;;4.38;;
20095;SDS011;10207;50.942;6.900;2023-09-08T04:49:34;7.97;;;4.53;;
20095;SDS011;10207;50.942;6.900;2023-09-08T04:52:00;8.23;;;4.40;;
20095;SDS011;10207;50.942;6.900;2023-09-08T04:54:27;6.25;;;4.18;;
20095;SDS011;10207;50.942;6.900;2023-09-08T04:56:55;11.43;;;4.35;;
20095;SDS011;10207;50.942;6.900;2023-09-08T04:59:21;8.90;;;3.95;;
20095;SDS011;10207;50.942;6.900;2023-09-08T05:01:49;10.52;;;4.20;;
20095;SDS011;10207;50.942;6.900;2023-09-08T05:04:16;7.80;;;4.72;;
20095;SDS011;10207;50.942;6.900;2023-09-08T05:06:43;9.70;;;4.55;;
20095;SDS011;10207;50.942;6.900;2023-09-08T05:09:10;8.60;;;4.30;;
20095;SDS011;10207;50.942;6.900;2023-09-08T05:11:36;6.40;;;4.13;;
20095;SDS011;10207;50.942;6.900;2023-09-08T05:14:02;7.45;;;4.07;;
20095;SDS011;10207;50.942;6.900;2023-09-08T05:16:28;7.47;;;4.50;;
20095;SDS011;10207;50.942;6.900;2023-09-08T05:19:15;7.38;;;4.40;;
20095;SDS011;10207;50.942;6.900;2023-09-08T05:21:42;11.52;;;4.20;;
20095;SDS011;10207;50.942;6.900;2023-09-08T05:24:09;7.10;;;4.25;;
20095;SDS011;10207;50.942;6.900;2023-09-08T05:26:36;8.15;;;4.38;;
20095;SDS011;10207;50.942;6.900;2023-09-08T05:29:02;8.45;;;4.18;;
20095;SDS011;10207;50.942;6.900;2023-09-08T05:31:28;6.38;;;4.88;;
20095;SDS011;10207;50.942;6.900;2023-09-08T05:33:55;8.43;;;4.60;;
20095;SDS011;10207;50.942;6.900;2023-09-08T05:36:21;9.55;;;3.97;;
20095;SDS011;10207;50.942;6.900;2023-09-08T05:38:47;7.97;;;3.70;;
20095;SDS011;10207;50.942;6.900;2023-09-08T05:41:13;7.45;;;3.75;;
20095;SDS011;10207;50.942;6.900;2023-09-08T05:43:39;6.80;;;4.10;;
20095;SDS011;10207;50.942;6.900;2023-09-08T05:46:05;7.65;;;4.28;;
20095;SDS011;10207;50.942;6.900;2023-09-08T05:48:31;6.80;;;3.75;;
20095;SDS011;10207;50.942;6.900;2023-09-08T05:50:58;6.50;;;3.97;;
20095;SDS011;10207;50.942;6.900;2023-09-08T05:53:25;6.90;;;3.92;;
20095;SDS011;10207;50.942;6.900;2023-09-08T05:55:51;5.97;;;4.30;;
20095;SDS011;10207;50.942;6.900;2023-09-08T05:58:18;6.53;;;3.80;;
20095;SDS011;10207;50.942;6.900;2023-09-08T06:00:44;5.85;;;3.78;;
20095;SDS011;10207;50.942;6.900;2023-09-08T06:03:10;9.98;;;4.00;;
20095;SDS011;10207;50.942;6.900;2023-09-08T06:05:36;12.13;;;3.75;;
20095;SDS011;10207;50.942;6.900;2023-09-08T06:08:04;9.32;;;4.07;;
20095;SDS011;10207;50.942;6.900;2023-09-08T06:10:30;7.68;;;3.97;;
20095;SDS011;10207;50.942;6.900;2023-09-08T06:12:57;7.18;;;3.63;;
20095;SDS011;10207;50.942;6.900;2023-09-08T06:15:23;10.35;;;3.22;;
20095;SDS011;10207;50.942;6.900;2023-09-08T06:17:49;9.50;;;4.07;;
20095;SDS011;10207;50.942;6.900;2023-09-08T06:20:15;8.48;;;3.90;;
20095;SDS011;10207;50.942;6.900;2023-09-08T06:22:42;8.98;;;4.10;;
20095;SDS011;10207;50.942;6.900;2023-09-08T06:25:09;5.90;;;3.65;;
20095;SDS011;10207;50.942;6.900;2023-09-08T06:27:35;9.77;;;4.32;;
20095;SDS011;10207;50.942;6.900;2023-09-08T06:30:01;10.63;;;4.10;;
20095;SDS011;10207;50.942;6.900;2023-09-08T06:32:29;9.07;;;4.32;;
20095;SDS011;10207;50.942;6.900;2023-09-08T06:34:55;6.47;;;3.70;;
20095;SDS011;10207;50.942;6.900;2023-09-08T06:37:21;6.25;;;3.45;;
20095;SDS011;10207;50.942;6.900;2023-09-08T06:39:47;7.10;;;3.60;;
20095;SDS011;10207;50.942;6.900;2023-09-08T06:42:13;7.00;;;4.30;;
20095;SDS011;10207;50.942;6.900;2023-09-08T06:44:47;6.07;;;4.13;;
20095;SDS011;10207;50.942;6.900;2023-09-08T06:47:13;7.57;;;3.70;;
20095;SDS011;10207;50.942;6.900;2023-09-08T06:49:39;5.28;;;3.38;;
20095;SDS011;10207;50.942;6.900;2023-09-08T06:52:07;7.10;;;3.92;;
20095;SDS011;10207;50.942;6.900;2023-09-08T06:54:33;7.32;;;3.95;;
20095;SDS011;10207;50.942;6.900;2023-09-08T06:56:59;7.93;;;3.55;;
20095;SDS011;10207;50.942;6.900;2023-09-08T06:59:25;6.47;;;3.72;;
20095;SDS011;10207;50.942;6.900;2023-09-08T07:01:51;7.88;;;3.88;;
20095;SDS011;10207;50.942;6.900;2023-09-08T07:04:18;9.45;;;4.10;;
20095;SDS011;10207;50.942;6.900;2023-09-08T07:06:44;7.53;;;3.53;;
20095;SDS011;10207;50.942;6.900;2023-09-08T07:09:12;5.80;;;3.50;;
20095;SDS011;10207;50.942;6.900;2023-09-08T07:11:38;6.90;;;3.55;;
20095;SDS011;10207;50.942;6.900;2023-09-08T07:14:05;7.53;;;3.92;;
20095;SDS011;10207;50.942;6.900;2023-09-08T07:16:31;8.23;;;3.78;;
20095;SDS011;10207;50.942;6.900;2023-09-08T07:18:57;5.90;;;3.70;;
20095;SDS011;10207;50.942;6.900;2023-09-08T07:21:25;8.05;;;3.50;;
20095;SDS011;10207;50.942;6.900;2023-09-08T07:23:51;5.43;;;4.15;;
20095;SDS011;10207;50.942;6.900;2023-09-08T07:26:19;6.82;;;3.83;;
20095;SDS011;10207;50.942;6.900;2023-09-08T07:28:45;7.20;;;3.83;;
20095;SDS011;10207;50.942;6.900;2023-09-08T07:31:14;7.97;;;4.05;;
20095;SDS011;10207;50.942;6.900;2023-09-08T07:33:43;7.93;;;3.80;;
20095;SDS011;10207;50.942;6.900;2023-09-08T07:36:09;6.72;;;4.05;;
20095;SDS011;10207;50.942;6.900;2023-09-08T07:38:37;5.22;;;3.47;;
20095;SDS011;10207;50.942;6.900;2023-09-08T07:41:03;5.70;;;3.50;;
20095;SDS011;10207;50.942;6.900;2023-09-08T07:43:30;7.30;;;3.22;;
20095;SDS011;10207;50.942;6.900;2023-09-08T07:45:57;6.85;;;3.40;;
20095;SDS011;10207;50.942;6.900;2023-09-08T07:48:23;7.78;;;3.63;;
20095;SDS011;10207;50.942;6.900;2023-09-08T07:50:48;9.02;;;3.78;;
20095;SDS011;10207;50.942;6.900;2023-09-08T07:53:14;10.98;;;3.50;;
20095;SDS011;10207;50.942;6.900;2023-09-08T07:55:40;8.88;;;3.78;;
20095;SDS011;10207;50.942;6.900;2023-09-08T07:58:07;8.35;;;3.40;;
20095;SDS011;10207;50.942;6.900;2023-09-08T08:00:33;7.55;;;3.78;;
20095;SDS011;10207;50.942;6.900;2023-09-08T08:02:59;4.65;;;3.15;;
20095;SDS011;10207;50.942;6.900;2023-09-08T08:05:25;6.65;;;3.70;;
20095;SDS011;10207;50.942;6.900;2023-09-08T08:07:51;5.03;;;3.60;;
20095;SDS011;10207;50.942;6.900;2023-09-08T08:10:17;7.07;;;3.40;;
20095;SDS011;10207;50.942;6.900;2023-09-08T08:12:43;5.93;;;3.63;;
20095;SDS011;10207;50.942;6.900;2023-09-08T08:15:09;5.30;;;3.45;;
20095;SDS011;10207;50.942;6.900;2023-09-08T08:17:36;8.40;;;4.05;;
20095;SDS011;10207;50.942;6.900;2023-09-08T08:20:03;8.52;;;3.67;;
20095;SDS011;10207;50.942;6.900;2023-09-08T08:22:32;5.10;;;3.20;;
20095;SDS011;10207;50.942;6.900;2023-09-08T08:24:58;6.25;;;3.78;;
20095;SDS011;10207;50.942;6.900;2023-09-08T08:27:25;7.03;;;3.30;;
20095;SDS011;10207;50.942;6.900;2023-09-08T08:29:50;7.40;;;3.58;;
20095;SDS011;10207;50.942;6.900;2023-09-08T08:32:17;6.22;;;4.10;;
20095;SDS011;10207;50.942;6.900;2023-09-08T08:34:43;4.93;;;3.55;;
20095;SDS011;10207;50.942;6.900;2023-09-08T08:37:10;10.95;;;4.30;;
20095;SDS011;10207;50.942;6.900;2023-09-08T08:39:36;9.55;;;4.10;;
20095;SDS011;10207;50.942;6.900;2023-09-08T08:42:06;6.70;;;3.47;;
20095;SDS011;10207;50.942;6.900;2023-09-08T08:44:32;11.45;;;3.88;;
20095;SDS011;10207;50.942;6.900;2023-09-08T08:46:58;9.82;;;4.00;;
20095;SDS011;10207;50.942;6.900;2023-09-08T08:49:25;7.55;;;3.35;;
20095;SDS011;10207;50.942;6.900;2023-09-08T08:51:52;8.10;;;3.42;;
20095;SDS011;10207;50.942;6.900;2023-09-08T08:54:18;6.13;;;3.60;;
20095;SDS011;10207;50.942;6.900;2023-09-08T08:56:45;7.15;;;3.70;;
20095;SDS011;10207;50.942;6.900;2023-09-08T08:59:11;7.25;;;3.38;;
20095;SDS011;10207;50.942;6.900;2023-09-08T09:01:38;5.47;;;3.50;;
20095;SDS011;10207;50.942;6.900;2023-09-08T09:04:05;11.05;;;3.60;;
20095;SDS011;10207;50.942;6.900;2023-09-08T09:06:31;5.40;;;3.88;;
20095;SDS011;10207;50.942;6.900;2023-09-08T09:08:57;4.50;;;3.28;;
20095;SDS011;10207;50.942;6.900;2023-09-08T09:11:24;7.53;;;3.83;;
20095;SDS011;10207;50.942;6.900;2023-09-08T09:13:50;6.20;;;3.58;;
20095;SDS011;10207;50.942;6.900;2023-09-08T09:16:15;7.70;;;4.00;;
20095;SDS011;10207;50.942;6.900;2023-09-08T09:18:54;6.43;;;3.20;;
20095;SDS011;10207;50.942;6.900;2023-09-08T09:21:23;4.57;;;3.30;;
20095;SDS011;10207;50.942;6.900;2023-09-08T09:23:49;8.57;;;3.35;;
20095;SDS011;10207;50.942;6.900;2023-09-08T09:26:34;7.15;;;3.55;;
20095;SDS011;10207;50.942;6.900;2023-09-08T09:29:01;4.18;;;3.40;;
20095;SDS011;10207;50.942;6.900;2023-09-08T09:31:28;6.07;;;2.97;;
20095;SDS011;10207;50.942;6.900;2023-09-08T09:34:02;5.32;;;3.17;;
20095;SDS011;10207;50.942;6.900;2023-09-08T09:36:31;6.65;;;3.88;;
20095;SDS011;10207;50.942;6.900;2023-09-08T09:38:58;5.85;;;3.38;;
20095;SDS011;10207;50.942;6.900;2023-09-08T09:41:24;7.22;;;3.58;;
20095;SDS011;10207;50.942;6.900;2023-09-08T09:43:50;10.55;;;3.72;;
20095;SDS011;10207;50.942;6.900;2023-09-08T09:46:16;5.53;;;3.63;;
20095;SDS011;10207;50.942;6.900;2023-09-08T09:48:41;5.22;;;3.35;;
20095;SDS011;10207;50.942;6.900;2023-09-08T09:51:15;5.75;;;3.38;;
20095;SDS011;10207;50.942;6.900;2023-09-08T09:53:41;6.43;;;3.38;;
20095;SDS011;10207;50.942;6.900;2023-09-08T09:56:08;7.90;;;3.40;;
20095;SDS011;10207;50.942;6.900;2023-09-08T09:58:35;6.00;;;3.60;;
20095;SDS011;10207;50.942;6.900;2023-09-08T10:01:01;6.13;;;3.20;;
20095;SDS011;10207;50.942;6.900;2023-09-08T10:03:28;7.45;;;3.65;;
20095;SDS011;10207;50.942;6.900;2023-09-08T10:05:54;7.95;;;3.75;;
20095;SDS011;10207;50.942;6.900;2023-09-08T10:08:20;7.28;;;4.35;;
20095;SDS011;10207;50.942;6.900;2023-09-08T10:10:47;4.80;;;3.17;;
20095;SDS011;10207;50.942;6.900;2023-09-08T10:13:13;6.43;;;3.88;;
20095;SDS011;10207;50.942;6.900;2023-09-08T10:15:43;8.07;;;3.42;;
20095;SDS011;10207;50.942;6.900;2023-09-08T10:18:10;6.45;;;3.38;;
20095;SDS011;10207;50.942;6.900;2023-09-08T10:20:37;7.22;;;3.72;;
20095;SDS011;10207;50.942;6.900;2023-09-08T10:25:30;15.68;;;4.20;;
20095;SDS011;10207;50.942;6.900;2023-09-08T10:27:57;7.00;;;3.70;;
20095;SDS011;10207;50.942;6.900;2023-09-08T10:30:24;9.00;;;4.03;;
20095;SDS011;10207;50.942;6.900;2023-09-08T10:32:50;7.22;;;3.88;;
20095;SDS011;10207;50.942;6.900;2023-09-08T10:35:16;9.38;;;3.35;;
20095;SDS011;10207;50.942;6.900;2023-09-08T10:37:44;5.53;;;3.58;;
20095;SDS011;10207;50.942;6.900;2023-09-08T10:40:23;5.32;;;3.40;;
20095;SDS011;10207;50.942;6.900;2023-09-08T10:43:06;8.25;;;3.95;;
20095;SDS011;10207;50.942;6.900;2023-09-08T10:45:32;5.95;;;3.58;;
20095;SDS011;10207;50.942;6.900;2023-09-08T10:47:58;9.68;;;3.42;;
20095;SDS011;10207;50.942;6.900;2023-09-08T10:50:34;6.47;;;3.88;;
20095;SDS011;10207;50.942;6.900;2023-09-08T10:55:56;8.10;;;3.60;;
20095;SDS011;10207;50.942;6.900;2023-09-08T10:58:30;5.35;;;3.42;;
20095;SDS011;10207;50.942;6.900;2023-09-08T11:00:58;7.05;;;3.50;;
20095;SDS011;10207;50.942;6.900;2023-09-08T11:06:04;5.07;;;3.35;;
20095;SDS011;10207;50.942;6.900;2023-09-08T11:08:30;3.53;;;3.15;;
20095;SDS011;10207;50.942;6.900;2023-09-08T11:10:56;4.32;;;3.53;;
20095;SDS011;10207;50.942;6.900;2023-09-08T11:13:22;4.75;;;3.95;;
20095;SDS011;10207;50.942;6.900;2023-09-08T11:15:50;6.28;;;3.70;;
20095;SDS011;10207;50.942;6.900;2023-09-08T11:18:16;8.48;;;3.20;;
20095;SDS011;10207;50.942;6.900;2023-09-08T11:20:42;4.47;;;3.28;;
20095;SDS011;10207;50.942;6.900;2023-09-08T11:23:10;7.00;;;3.33;;
20095;SDS011;10207;50.942;6.900;2023-09-08T11:25:36;4.68;;;3.28;;
20095;SDS011;10207;50.942;6.900;2023-09-08T11:28:03;7.70;;;3.70;;
20095;SDS011;10207;50.942;6.900;2023-09-08T11:30:29;4.07;;;3.53;;
20095;SDS011;10207;50.942;6.900;2023-09-08T11:32:55;5.85;;;3.22;;
20095;SDS011;10207;50.942;6.900;2023-09-08T11:35:25;4.68;;;3.45;;
20095;SDS011;10207;50.942;6.900;2023-09-08T11:37:52;5.65;;;3.45;;
20095;SDS011;10207;50.942;6.900;2023-09-08T11:40:20;7.45;;;3.40;;
20095;SDS011;10207;50.942;6.900;2023-09-08T11:42:51;5.35;;;3.42;;
20095;SDS011;10207;50.942;6.900;2023-09-08T11:45:19;4.05;;;3.22;;
20095;SDS011;10207;50.942;6.900;2023-09-08T11:47:49;4.55;;;3.03;;
20095;SDS011;10207;50.942;6.900;2023-09-08T11:50:15;9.52;;;3.22;;
20095;SDS011;10207;50.942;6.900;2023-09-08T11:52:46;7.18;;;3.65;;
20095;SDS011;10207;50.942;6.900;2023-09-08T11:55:13;4.05;;;3.13;;
20095;SDS011;10207;50.942;6.900;2023-09-08T11:57:42;5.07;;;3.50;;
20095;SDS011;10207;50.942;6.900;2023-09-08T12:00:10;5.60;;;3.38;;
20095;SDS011;10207;50.942;6.900;2023-09-08T12:02:40;11.15;;;3.30;;
20095;SDS011;10207;50.942;6.900;2023-09-08T12:05:10;5.20;;;3.35;;
20095;SDS011;10207;50.942;6.900;2023-09-08T12:07:37;3.90;;;3.40;;
20095;SDS011;10207;50.942;6.900;2023-09-08T12:10:07;6.85;;;3.67;;
20095;SDS011;10207;50.942;6.900;2023-09-08T12:12:33;5.38;;;3.28;;
20095;SDS011;10207;50.942;6.900;2023-09-08T12:14:59;4.60;;;3.22;;
20095;SDS011;10207;50.942;6.900;2023-09-08T12:17:25;7.45;;;3.63;;
20095;SDS011;10207;50.942;6.900;2023-09-08T12:19:51;10.75;;;3.30;;
20095;SDS011;10207;50.942;6.900;2023-09-08T12:22:17;8.60;;;3.33;;
20095;SDS011;10207;50.942;6.900;2023-09-08T12:24:48;6.55;;;3.33;;
20095;SDS011;10207;50.942;6.900;2023-09-08T12:27:15;5.40;;;3.25;;
20095;SDS011;10207;50.942;6.900;2023-09-08T12:30:02;3.72;;;3.35;;
20095;SDS011;10207;50.942;6.900;2023-09-08T12:32:30;4.18;;;3.42;;
20095;SDS011;10207;50.942;6.900;2023-09-08T12:34:57;4.93;;;3.28;;
20095;SDS011;10207;50.942;6.900;2023-09-08T12:37:24;9.00;;;4.53;;
20095;SDS011;10207;50.942;6.900;2023-09-08T12:39:50;4.63;;;3.25;;
20095;SDS011;10207;50.942;6.900;2023-09-08T12:42:17;7.47;;;3.28;;
20095;SDS011;10207;50.942;6.900;2023-09-08T12:44:43;4.15;;;3.25;;
20095;SDS011;10207;50.942;6.900;2023-09-08T12:47:10;4.68;;;3.08;;
20095;SDS011;10207;50.942;6.900;2023-09-08T12:49:36;5.30;;;3.40;;
20095;SDS011;10207;50.942;6.900;2023-09-08T12:52:02;4.82;;;3.13;;
20095;SDS011;10207;50.942;6.900;2023-09-08T12:54:28;6.90;;;3.47;;
20095;SDS011;10207;50.942;6.900;2023-09-08T12:56:54;5.82;;;3.20;;
20095;SDS011;10207;50.942;6.900;2023-09-08T12:59:20;7.78;;;3.10;;
20095;SDS011;10207;50.942;6.900;2023-09-08T13:01:46;9.15;;;3.70;;
20095;SDS011;10207;50.942;6.900;2023-09-08T13:04:12;5.90;;;3.05;;
20095;SDS011;10207;50.942;6.900;2023-09-08T13:06:38;5.68;;;3.45;;
20095;SDS011;10207;50.942;6.900;2023-09-08T13:09:04;5.80;;;3.22;;
20095;SDS011;10207;50.942;6.900;2023-09-08T13:11:31;6.07;;;3.50;;
20095;SDS011;10207;50.942;6.900;2023-09-08T13:13:57;5.22;;;3.45;;
20095;SDS011;10207;50.942;6.900;2023-09-08T13:16:23;5.05;;;3.38;;
20095;SDS011;10207;50.942;6.900;2023-09-08T13:18:49;8.82;;;3.65;;
20095;SDS011;10207;50.942;6.900;2023-09-08T13:21:15;5.15;;;3.65;;
20095;SDS011;10207;50.942;6.900;2023-09-08T13:23:41;11.05;;;4.10;;
20095;SDS011;10207;50.942;6.900;2023-09-08T13:26:07;4.82;;;3.53;;
20095;SDS011;10207;50.942;6.900;2023-09-08T13:28:33;6.68;;;3.90;;
20095;SDS011;10207;50.942;6.900;2023-09-08T13:30:59;4.97;;;3.53;;
20095;SDS011;10207;50.942;6.900;2023-09-08T13:33:24;5.00;;;3.30;;
20095;SDS011;10207;50.942;6.900;2023-09-08T13:35:50;9.43;;;3.55;;
20095;SDS011;10207;50.942;6.900;2023-09-08T13:38:16;3.63;;;3.17;;
20095;SDS011;10207;50.942;6.900;2023-09-08T13:40:42;5.32;;;3.08;;
20095;SDS011;10207;50.942;6.900;2023-09-08T13:43:08;5.15;;;3.45;;
20095;SDS011;10207;50.942;6.900;2023-09-08T13:45:34;6.53;;;3.50;;
20095;SDS011;10207;50.942;6.900;2023-09-08T13:48:01;6.72;;;3.33;;
20095;SDS011;10207;50.942;6.900;2023-09-08T13:50:29;6.18;;;3.30;;
20095;SDS011;10207;50.942;6.900;2023-09-08T13:52:55;3.72;;;3.22;;
20095;SDS011;10207;50.942;6.900;2023-09-08T13:55:21;5.43;;;3.50;;
20095;SDS011;10207;50.942;6.900;2023-09-08T13:57:49;5.80;;;3.30;;
20095;SDS011;10207;50.942;6.900;2023-09-08T14:00:19;6.80;;;3.58;;
20095;SDS011;10207;50.942;6.900;2023-09-08T14:02:45;6.40;;;3.60;;
20095;SDS011;10207;50.942;6.900;2023-09-08T14:05:11;7.60;;;3.50;;
20095;SDS011;10207;50.942;6.900;2023-09-08T14:07:37;6.15;;;3.40;;
20095;SDS011;10207;50.942;6.900;2023-09-08T14:10:03;5.95;;;3.50;;
20095;SDS011;10207;50.942;6.900;2023-09-08T14:12:33;6.50;;;3.35;;
20095;SDS011;10207;50.942;6.900;2023-09-08T14:14:59;5.13;;;3.17;;
20095;SDS011;10207;50.942;6.900;2023-09-08T14:17:25;5.88;;;3.47;;
20095;SDS011;10207;50.942;6.900;2023-09-08T14:19:51;5.97;;;3.30;;
20095;SDS011;10207;50.942;6.900;2023-09-08T14:22:17;6.18;;;3.30;;
20095;SDS011;10207;50.942;6.900;2023-09-08T14:24:43;6.38;;;3.70;;
20095;SDS011;10207;50.942;6.900;2023-09-08T14:27:09;4.47;;;3.22;;
20095;SDS011;10207;50.942;6.900;2023-09-08T14:29:35;4.95;;;3.60;;
20095;SDS011;10207;50.942;6.900;2023-09-08T14:32:01;5.10;;;3.42;;
20095;SDS011;10207;50.942;6.900;2023-09-08T14:34:28;7.53;;;3.30;;
20095;SDS011;10207;50.942;6.900;2023-09-08T14:36:54;4.50;;;3.33;;
20095;SDS011;10207;50.942;6.900;2023-09-08T14:39:19;4.50;;;3.25;;
20095;SDS011;10207;50.942;6.900;2023-09-08T14:41:46;6.40;;;3.75;;
20095;SDS011;10207;50.942;6.900;2023-09-08T14:44:12;6.82;;;3.92;;
20095;SDS011;10207;50.942;6.900;2023-09-08T14:46:38;5.50;;;3.42;;
20095;SDS011;10207;50.942;6.900;2023-09-08T14:49:04;6.22;;;3.67;;
20095;SDS011;10207;50.942;6.900;2023-09-08T14:51:30;5.82;;;3.25;;
20095;SDS011;10207;50.942;6.900;2023-09-08T14:53:56;9.00;;;3.55;;
20095;SDS011;10207;50.942;6.900;2023-09-08T14:56:21;8.57;;;3.83;;
20095;SDS011;10207;50.942;6.900;2023-09-08T14:58:47;5.80;;;3.97;;
20095;SDS011;10207;50.942;6.900;2023-09-08T15:01:13;6.63;;;4.05;;
20095;SDS011;10207;50.942;6.900;2023-09-08T15:03:39;6.00;;;3.83;;